Time;durP1;ratioP1;P1;durP2;ratioP2;P2;SDS_P1;SDS_P2;PMS_P1;PMS_P2;Temp;Humidity;BMP_temperature;BMP_pressure;BME280_temperature;BME280_humidity;BME280_pressure;Samples;Min_cycle;Max_cycle;Signal;HPM_P1;HPM_P2
2022/08/23 00:00:41;;;;;;;8.52;6.13;;;24.90;80.90;;;;;;6200447;28;81321;-59
2022/08/23 00:03:41;;;;;;;11.38;6.93;;;24.90;80.40;;;;;;6179468;28;86073;-59
2022/08/23 00:06:41;;;;;;;10.57;6.03;;;24.90;80.30;;;;;;6181069;28;80369;-60
2022/08/23 00:09:42;;;;;;;8.50;6.05;;;24.90;80.40;;;;;;6188202;28;80500;-59
2022/08/23 00:12:43;;;;;;;9.63;6.28;;;24.90;80.30;;;;;;6173559;28;80529;-55
2022/08/23 00:15:43;;;;;;;9.82;6.05;;;24.90;79.90;;;;;;6192655;28;81041;-55
2022/08/23 00:18:44;;;;;;;10.95;5.95;;;24.80;80.00;;;;;;6185154;28;80503;-55
2022/08/23 00:21:44;;;;;;;12.52;6.38;;;24.80;80.10;;;;;;6185423;28;80261;-56
2022/08/23 00:24:45;;;;;;;10.60;5.57;;;24.90;80.00;;;;;;6188077;28;80794;-57
2022/08/23 00:27:45;;;;;;;7.38;5.78;;;24.80;79.90;;;;;;6180382;28;81037;-56
2022/08/23 00:30:45;;;;;;;8.10;5.45;;;24.80;80.10;;;;;;6165378;28;85385;-56
2022/08/23 00:33:46;;;;;;;9.65;5.90;;;24.80;80.20;;;;;;6181098;28;80463;-56
2022/08/23 00:36:46;;;;;;;8.10;4.75;;;24.80;80.00;;;;;;6200031;28;80539;-57
2022/08/23 00:39:47;;;;;;;9.25;5.88;;;24.80;80.10;;;;;;6195340;28;81424;-56
2022/08/23 00:49:26;;;;;;;9.60;6.03;;;24.50;81.20;;;;;;6197656;28;81597;-58
2022/08/23 00:52:28;;;;;;;7.60;5.72;;;24.40;81.20;;;;;;6187125;28;80972;-58
2022/08/23 00:55:28;;;;;;;7.20;5.03;;;24.50;81.20;;;;;;6198482;28;80347;-58
2022/08/23 00:58:29;;;;;;;10.45;5.25;;;24.50;81.00;;;;;;6197812;28;80413;-56
2022/08/23 01:01:29;;;;;;;8.63;4.30;;;24.60;80.90;;;;;;6201050;28;80162;-56
2022/08/23 01:04:30;;;;;;;7.72;4.95;;;24.70;80.60;;;;;;6202269;28;80073;-56
2022/08/23 01:07:30;;;;;;;5.50;3.90;;;24.70;80.20;;;;;;6198660;28;81007;-57
2022/08/23 01:10:31;;;;;;;5.20;3.70;;;24.80;79.80;;;;;;6198238;28;80939;-57
2022/08/23 01:13:31;;;;;;;5.18;3.47;;;24.90;79.70;;;;;;6178759;28;83145;-55
2022/08/23 01:16:35;;;;;;;4.53;3.38;;;25.00;79.60;;;;;;6200379;28;80813;-57
2022/08/23 01:19:35;;;;;;;5.18;3.83;;;25.10;79.00;;;;;;6180041;28;86838;-57
2022/08/23 01:22:36;;;;;;;4.65;3.20;;;25.10;79.10;;;;;;6198270;28;82524;-56
2022/08/23 01:25:37;;;;;;;6.82;4.03;;;25.10;78.60;;;;;;6175972;28;83671;-56
2022/08/23 01:28:39;;;;;;;5.63;4.03;;;25.10;78.50;;;;;;6183504;28;82527;-57
2022/08/23 01:31:42;;;;;;;7.43;4.97;;;25.10;78.40;;;;;;6183580;28;82549;-58
2022/08/23 01:34:42;;;;;;;6.13;4.65;;;25.10;78.60;;;;;;6183548;28;81303;-58
2022/08/23 01:37:43;;;;;;;8.00;5.38;;;25.10;78.50;;;;;;6177988;28;83066;-57
2022/08/23 01:40:45;;;;;;;10.43;6.18;;;25.00;78.80;;;;;;6190922;28;85265;-56
2022/08/23 01:43:45;;;;;;;11.20;6.40;;;24.90;79.00;;;;;;6175452;28;80801;-56
2022/08/23 01:46:46;;;;;;;8.23;5.72;;;24.90;79.30;;;;;;6188814;28;81528;-56
2022/08/23 01:49:47;;;;;;;8.60;5.70;;;24.80;79.30;;;;;;6179656;28;84184;-56
2022/08/23 01:52:47;;;;;;;8.77;5.78;;;24.90;79.30;;;;;;6166014;28;82930;-57
2022/08/23 01:55:51;;;;;;;8.70;5.45;;;24.90;79.30;;;;;;6178670;28;81581;-55
2022/08/23 01:58:53;;;;;;;7.40;4.85;;;24.90;79.20;;;;;;6159151;28;83233;-57
2022/08/23 02:01:56;;;;;;;7.03;4.80;;;24.90;79.00;;;;;;6187736;28;81861;-59
2022/08/23 02:04:57;;;;;;;7.38;4.80;;;24.90;78.90;;;;;;6184713;28;83246;-59
2022/08/23 02:08:59;;;;;;;7.32;5.13;;;24.90;78.80;;;;;;6203967;28;82532;-60
2022/08/23 02:11:20;;;;;;;7.07;5.30;;;25.00;78.70;;;;;;6209174;28;83332;-59
2022/08/23 02:14:21;;;;;;;7.35;4.85;;;25.00;78.50;;;;;;6201160;28;82197;-60
2022/08/23 02:17:30;;;;;;;6.05;4.30;;;25.10;78.50;;;;;;6206593;28;81766;-58
2022/08/23 02:20:31;;;;;;;8.70;4.85;;;25.10;78.40;;;;;;6190047;28;83550;-59
2022/08/23 02:23:32;;;;;;;8.05;5.93;;;25.00;78.10;;;;;;6185527;28;83190;-58
2022/08/23 02:26:32;;;;;;;8.35;5.50;;;24.90;79.00;;;;;;6185201;28;81666;-58
2022/08/23 02:29:34;;;;;;;13.60;6.95;;;24.90;78.50;;;;;;6202292;28;80154;-59
2022/08/23 02:32:37;;;;;;;11.90;5.63;;;24.80;78.60;;;;;;6162234;28;83169;-58
2022/08/23 02:35:38;;;;;;;9.55;6.18;;;24.80;78.80;;;;;;6178028;28;83367;-57
2022/08/23 02:38:38;;;;;;;8.52;6.15;;;24.70;78.90;;;;;;6202358;28;80460;-56
2022/08/23 02:41:40;;;;;;;7.60;5.70;;;24.80;79.00;;;;;;6184015;28;83474;-58
2022/08/23 02:44:41;;;;;;;11.93;6.47;;;24.70;79.20;;;;;;6184722;28;83698;-59
2022/08/23 02:47:42;;;;;;;13.43;7.70;;;24.70;79.90;;;;;;6183290;28;83490;-59
2022/08/23 02:50:51;;;;;;;8.70;5.97;;;24.60;79.30;;;;;;6184202;28;81465;-59
2022/08/23 02:53:52;;;;;;;13.07;7.53;;;24.50;79.60;;;;;;6183326;28;83067;-59
2022/08/23 02:56:54;;;;;;;12.23;6.28;;;24.50;80.00;;;;;;6185944;28;82118;-59
2022/08/23 02:59:56;;;;;;;10.40;6.93;;;24.50;80.10;;;;;;6175416;28;83229;-59
2022/08/23 03:02:57;;;;;;;10.45;6.20;;;24.40;79.90;;;;;;6183123;28;87392;-59
2022/08/23 03:05:59;;;;;;;9.20;6.00;;;24.50;80.10;;;;;;6181994;28;83329;-59
2022/08/23 03:09:00;;;;;;;10.38;6.25;;;24.50;79.90;;;;;;6182703;28;81348;-58
2022/08/23 03:12:00;;;;;;;10.52;6.88;;;24.40;80.00;;;;;;6184763;28;82031;-58
2022/08/23 03:15:01;;;;;;;8.23;5.35;;;24.40;80.30;;;;;;6186397;28;84382;-59
2022/08/23 03:18:02;;;;;;;14.82;6.32;;;24.40;80.20;;;;;;6199175;28;83170;-59
2022/08/23 03:21:02;;;;;;;10.05;6.57;;;24.40;80.10;;;;;;6179554;28;83356;-60
2022/08/23 03:24:03;;;;;;;7.00;5.38;;;24.40;80.30;;;;;;6200267;28;80386;-60
2022/08/23 03:27:03;;;;;;;8.88;5.68;;;24.40;80.00;;;;;;6182632;28;82905;-58
2022/08/23 03:30:04;;;;;;;7.90;5.97;;;24.40;80.20;;;;;;6188952;28;82394;-60
2022/08/23 03:33:05;;;;;;;7.70;5.80;;;24.40;80.10;;;;;;6183978;28;82934;-60
2022/08/23 03:36:06;;;;;;;9.13;4.97;;;24.40;79.90;;;;;;6181158;28;83271;-60
2022/08/23 03:39:06;;;;;;;7.60;5.25;;;24.40;79.90;;;;;;6169537;28;85533;-60
2022/08/23 03:42:07;;;;;;;6.93;4.18;;;24.50;80.10;;;;;;6197181;28;82274;-58
2022/08/23 03:45:08;;;;;;;5.60;4.50;;;24.60;80.00;;;;;;6198218;28;81984;-59
2022/08/23 03:48:09;;;;;;;6.82;4.95;;;24.70;80.00;;;;;;6171888;28;85092;-60
2022/08/23 03:51:10;;;;;;;7.55;5.00;;;24.80;80.00;;;;;;6189250;28;83285;-60
2022/08/23 03:54:12;;;;;;;7.93;5.47;;;24.70;79.50;;;;;;6178833;28;83147;-59
2022/08/23 03:57:12;;;;;;;7.03;5.35;;;24.80;79.50;;;;;;6178418;28;83141;-57
2022/08/23 04:00:13;;;;;;;8.52;5.40;;;24.70;79.20;;;;;;6189508;28;81561;-60
2022/08/23 04:03:18;;;;;;;8.25;5.88;;;24.70;79.50;;;;;;6180405;28;82899;-58
2022/08/23 04:06:31;;;;;;;9.00;6.13;;;24.60;79.50;;;;;;6180090;28;81761;-58
2022/08/23 04:09:32;;;;;;;8.38;5.72;;;24.70;79.50;;;;;;6169775;28;83609;-59
2022/08/23 04:12:33;;;;;;;8.68;5.15;;;24.70;79.30;;;;;;6187075;28;80853;-59
2022/08/23 04:15:33;;;;;;;8.45;5.38;;;24.70;79.20;;;;;;6171478;28;83659;-59
2022/08/23 04:18:35;;;;;;;8.10;4.97;;;24.80;79.30;;;;;;6165855;28;83084;-59
2022/08/23 04:21:36;;;;;;;10.80;6.25;;;24.80;79.00;;;;;;6163189;28;82579;-58
2022/08/23 04:24:37;;;;;;;9.38;5.72;;;24.90;79.00;;;;;;6178497;28;82742;-60
2022/08/23 04:27:38;;;;;;;7.57;5.07;;;24.90;78.90;;;;;;6179751;28;82838;-60
2022/08/23 04:30:38;;;;;;;10.65;6.00;;;24.90;78.70;;;;;;6159898;28;83089;-60
2022/08/23 04:33:39;;;;;;;6.30;4.75;;;24.90;78.70;;;;;;6170780;28;87722;-59
2022/08/23 04:36:39;;;;;;;8.15;5.70;;;24.90;78.90;;;;;;6173824;28;83333;-59
2022/08/23 04:43:07;;;;;;;9.82;5.22;;;25.00;78.60;;;;;;6151472;28;86213;-60
2022/08/23 04:46:09;;;;;;;7.18;4.85;;;25.10;79.00;;;;;;6171707;28;82475;-59
2022/08/23 04:49:10;;;;;;;11.90;6.32;;;25.10;78.70;;;;;;6181410;28;82830;-54
2022/08/23 04:52:12;;;;;;;12.73;6.25;;;25.10;78.60;;;;;;6184982;28;83674;-57
2022/08/23 04:55:13;;;;;;;12.95;5.57;;;25.10;78.20;;;;;;6181428;28;82155;-56
2022/08/23 04:58:20;;;;;;;8.23;5.85;;;25.10;78.10;;;;;;6184980;28;83313;-57
2022/08/23 05:01:24;;;;;;;9.48;6.35;;;25.20;78.30;;;;;;6179138;28;81535;-55
2022/08/23 05:04:25;;;;;;;14.65;6.25;;;25.10;78.30;;;;;;6176451;28;82442;-57
2022/08/23 05:07:26;;;;;;;10.70;6.30;;;25.10;78.70;;;;;;6179347;28;82692;-58
2022/08/23 05:10:27;;;;;;;9.88;6.63;;;25.10;78.80;;;;;;6177655;28;82119;-58
2022/08/23 05:13:28;;;;;;;11.45;6.50;;;25.00;79.00;;;;;;6174970;28;83204;-58
2022/08/23 05:16:29;;;;;;;13.15;7.03;;;24.90;79.00;;;;;;6194995;28;80247;-57
2022/08/23 05:19:41;;;;;;;14.32;8.68;;;24.60;79.90;;;;;;6189122;28;86298;-59
2022/08/23 05:22:42;;;;;;;15.45;8.88;;;24.50;80.90;;;;;;6183572;28;80731;-59
2022/08/23 05:26:00;;;;;;;15.48;8.15;;;24.50;81.30;;;;;;6168654;28;82658;-59
2022/08/23 05:29:09;;;;;;;12.75;7.25;;;24.60;81.20;;;;;;6168252;28;83275;-59
2022/08/23 05:32:16;;;;;;;12.10;6.85;;;24.70;80.60;;;;;;6178542;28;81834;-59
2022/08/23 05:35:17;;;;;;;16.20;6.97;;;24.80;80.30;;;;;;6148885;28;87003;-59
2022/08/23 05:38:18;;;;;;;12.55;8.00;;;24.80;80.00;;;;;;6140292;28;82305;-59
2022/08/23 05:41:19;;;;;;;11.77;7.82;;;24.80;79.90;;;;;;6132269;28;83736;-57
2022/08/23 05:44:20;;;;;;;13.13;6.80;;;24.70;79.90;;;;;;6139612;28;81710;-58
2022/08/23 05:47:21;;;;;;;12.55;7.57;;;24.80;79.80;;;;;;6136942;28;83620;-58
2022/08/23 05:50:42;;;;;;;13.40;7.18;;;24.80;79.90;;;;;;6151297;28;82617;-58
2022/08/23 05:53:42;;;;;;;15.75;8.48;;;24.80;79.80;;;;;;6146958;28;81917;-59
2022/08/23 05:56:43;;;;;;;12.38;7.03;;;24.60;80.50;;;;;;6134908;28;82038;-59
2022/08/23 05:59:46;;;;;;;11.25;6.88;;;24.70;80.60;;;;;;6151638;28;83330;-59
2022/08/23 06:02:48;;;;;;;7.45;5.28;;;24.70;80.20;;;;;;6161244;28;80951;-58
2022/08/23 06:05:49;;;;;;;15.13;6.68;;;24.80;80.00;;;;;;6145595;28;83501;-58
2022/08/23 06:08:49;;;;;;;7.55;5.68;;;24.90;80.00;;;;;;6154120;28;83945;-58
2022/08/23 06:11:50;;;;;;;9.23;5.95;;;24.90;79.70;;;;;;6146558;28;83401;-58
2022/08/23 06:14:52;;;;;;;11.40;6.82;;;24.90;79.60;;;;;;6152516;28;83509;-55
2022/08/23 06:17:52;;;;;;;13.98;6.65;;;24.90;80.20;;;;;;6165507;28;81523;-58
2022/08/23 06:20:53;;;;;;;19.60;8.25;;;24.90;80.00;;;;;;6176101;28;81613;-59
2022/08/23 06:24:03;;;;;;;13.55;8.77;;;24.90;80.30;;;;;;6151920;28;81897;-57
2022/08/23 06:27:03;;;;;;;16.63;9.55;;;24.70;81.20;;;;;;6152402;28;81963;-58
2022/08/23 06:30:07;;;;;;;19.33;8.93;;;24.40;82.50;;;;;;6154927;28;84198;-59
2022/08/23 06:33:07;;;;;;;12.35;7.15;;;24.60;82.30;;;;;;6170512;28;80306;-58
2022/08/23 06:36:31;;;;;;;11.98;8.02;;;24.80;82.00;;;;;;6192188;28;81471;-60
2022/08/23 06:39:47;;;;;;;10.10;6.47;;;24.90;81.20;;;;;;6170738;28;84080;-60
2022/08/23 06:43:10;;;;;;;10.52;6.45;;;25.10;81.20;;;;;;6155508;28;83694;-59
2022/08/23 06:46:26;;;;;;;12.57;7.82;;;25.10;80.40;;;;;;6149813;28;83780;-60
2022/08/23 06:49:29;;;;;;;15.35;9.60;;;25.10;80.50;;;;;;6172270;28;85554;-60
2022/08/23 06:52:29;;;;;;;17.00;10.25;;;24.90;81.10;;;;;;6179538;28;80893;-60
2022/08/23 06:55:53;;;;;;;17.95;10.07;;;24.90;81.20;;;;;;6162899;28;87500;-60
2022/08/23 06:59:12;;;;;;;25.70;8.80;;;24.90;81.70;;;;;;6188350;28;87617;-60
2022/08/23 07:02:26;;;;;;;14.43;8.65;;;24.90;81.40;;;;;;6174840;28;86419;-60
2022/08/23 07:05:30;;;;;;;16.02;7.97;;;25.00;81.10;;;;;;6184580;28;86223;-59
2022/08/23 07:08:46;;;;;;;17.23;11.30;;;25.10;80.90;;;;;;6190407;28;80782;-59
2022/08/23 07:11:47;;;;;;;16.58;10.38;;;25.00;81.40;;;;;;6175968;28;84048;-60
2022/08/23 07:14:48;;;;;;;22.38;8.50;;;24.90;81.70;;;;;;6194874;28;82932;-59
2022/08/23 07:17:48;;;;;;;21.38;10.40;;;24.90;82.00;;;;;;6187583;28;85968;-58
2022/08/23 07:20:49;;;;;;;26.60;11.43;;;25.00;81.60;;;;;;6196166;28;83618;-59
2022/08/23 07:23:50;;;;;;;26.23;11.02;;;25.10;81.70;;;;;;6175149;28;86166;-61
2022/08/23 07:26:53;;;;;;;18.95;10.02;;;25.10;81.40;;;;;;6178610;28;84455;-59
2022/08/23 07:29:54;;;;;;;16.42;9.38;;;25.10;81.20;;;;;;6193839;28;83639;-59
2022/08/23 07:32:54;;;;;;;32.17;10.45;;;25.10;81.40;;;;;;6197060;28;86369;-56
2022/08/23 07:35:56;;;;;;;26.02;10.27;;;25.20;82.10;;;;;;6171965;28;83661;-57
2022/08/23 07:38:57;;;;;;;19.48;8.90;;;25.20;81.20;;;;;;6195328;28;86790;-58
2022/08/23 07:41:58;;;;;;;17.35;9.77;;;25.20;81.10;;;;;;6187729;28;82882;-55
2022/08/23 07:44:58;;;;;;;17.83;11.18;;;25.20;80.90;;;;;;6174897;28;82889;-57
2022/08/23 07:48:01;;;;;;;17.17;11.15;;;25.10;81.30;;;;;;6172313;28;84529;-58
2022/08/23 07:51:03;;;;;;;20.40;11.05;;;25.00;81.70;;;;;;6173648;28;85451;-57
2022/08/23 07:54:03;;;;;;;20.20;11.98;;;25.00;81.50;;;;;;6191821;28;82761;-58
2022/08/23 07:57:04;;;;;;;17.15;9.85;;;24.90;82.00;;;;;;6186127;28;89530;-58
2022/08/23 08:00:23;;;;;;;19.33;10.23;;;25.00;82.30;;;;;;6188808;28;83542;-58
2022/08/23 08:03:34;;;;;;;15.35;9.68;;;25.10;81.80;;;;;;6188990;28;84297;-57
2022/08/23 08:06:52;;;;;;;19.42;11.70;;;25.20;81.60;;;;;;6184223;28;85882;-58
2022/08/23 08:09:55;;;;;;;22.42;12.13;;;25.10;81.40;;;;;;6172801;28;82769;-59
2022/08/23 08:12:56;;;;;;;13.75;10.00;;;25.10;81.50;;;;;;6172916;28;86477;-59
2022/08/23 08:15:57;;;;;;;17.50;10.30;;;25.20;81.60;;;;;;6185560;28;85983;-60
2022/08/23 08:19:01;;;;;;;17.23;10.35;;;25.30;81.80;;;;;;6185165;28;85189;-60
2022/08/23 08:22:20;;;;;;;19.05;10.02;;;25.30;81.30;;;;;;6187469;28;83202;-60
2022/08/23 08:26:00;;;;;;;17.83;11.20;;;25.40;80.90;;;;;;6191092;28;88457;-60
2022/08/23 08:29:00;;;;;;;19.25;10.98;;;25.40;80.90;;;;;;6187679;28;84462;-60
2022/08/23 08:32:01;;;;;;;18.35;9.50;;;25.50;81.00;;;;;;6196973;28;84361;-59
2022/08/23 08:35:01;;;;;;;14.85;9.45;;;25.50;80.70;;;;;;6199279;28;81761;-59
2022/08/23 08:38:02;;;;;;;15.68;9.20;;;25.50;80.30;;;;;;6176776;28;81824;-59
2022/08/23 08:41:02;;;;;;;16.85;10.07;;;25.50;80.60;;;;;;6188969;28;83056;-60
2022/08/23 08:44:03;;;;;;;18.13;10.45;;;25.60;80.20;;;;;;6190045;28;83118;-59
2022/08/23 08:47:05;;;;;;;22.25;11.30;;;25.70;79.70;;;;;;6192491;28;84629;-57
2022/08/23 08:50:06;;;;;;;19.90;10.88;;;25.70;79.70;;;;;;6182425;28;86031;-58
2022/08/23 08:53:06;;;;;;;17.90;10.65;;;25.50;80.50;;;;;;6190657;28;84819;-55
2022/08/23 08:56:30;;;;;;;17.08;10.77;;;25.50;81.10;;;;;;6174825;28;83188;-58
2022/08/23 08:59:37;;;;;;;56.70;18.40;;;25.60;80.60;;;;;;6156816;28;86052;-57
2022/08/23 09:02:38;;;;;;;55.22;20.48;;;25.80;81.30;;;;;;6191883;28;86071;-57
2022/08/23 09:05:41;;;;;;;52.03;19.35;;;25.80;82.00;;;;;;6166914;28;88767;-58
2022/08/23 09:08:42;;;;;;;35.40;18.40;;;25.90;83.60;;;;;;6174893;28;85455;-57
2022/08/23 09:11:44;;;;;;;33.97;15.98;;;25.90;84.10;;;;;;6165417;28;85966;-58
2022/08/23 09:14:45;;;;;;;27.52;15.98;;;26.00;83.50;;;;;;6197768;28;84737;-59
2022/08/23 09:17:45;;;;;;;29.75;15.77;;;26.00;84.10;;;;;;6173583;28;86412;-58
2022/08/23 09:20:46;;;;;;;29.10;16.77;;;26.10;83.60;;;;;;6175535;28;85875;-58
2022/08/23 09:23:47;;;;;;;20.35;13.85;;;26.20;84.80;;;;;;6177073;28;85230;-58
2022/08/23 09:26:57;;;;;;;20.90;13.38;;;26.20;84.70;;;;;;6178319;28;85738;-58
2022/08/23 09:29:57;;;;;;;20.33;12.18;;;26.20;84.70;;;;;;6194382;28;83144;-59
2022/08/23 09:32:59;;;;;;;24.88;12.95;;;26.30;84.60;;;;;;6176079;28;83392;-59
2022/08/23 09:36:00;;;;;;;16.35;11.38;;;26.30;84.20;;;;;;6175114;28;85163;-59
2022/08/23 09:39:00;;;;;;;23.30;12.35;;;26.30;83.50;;;;;;6187306;28;85702;-60
2022/08/23 09:42:01;;;;;;;70.93;22.23;;;26.30;83.20;;;;;;6193658;28;83491;-60
2022/08/23 09:45:02;;;;;;;72.72;25.10;;;26.30;84.90;;;;;;6174646;28;85918;-61
2022/08/23 09:48:04;;;;;;;125.57;33.85;;;26.30;85.40;;;;;;6168410;28;85727;-61
2022/08/23 09:51:08;;;;;;;119.72;36.72;;;26.40;85.80;;;;;;6178848;28;84143;-60
2022/08/23 09:54:09;;;;;;;132.95;42.45;;;26.40;85.40;;;;;;6176658;28;87143;-60
2022/08/23 09:57:10;;;;;;;100.25;33.30;;;26.40;85.50;;;;;;6185281;28;86087;-61
2022/08/23 10:00:11;;;;;;;180.25;48.13;;;26.50;83.60;;;;;;6181695;28;87175;-55
2022/08/23 10:03:12;;;;;;;154.48;46.50;;;26.60;84.50;;;;;;6189897;28;83467;-57
2022/08/23 10:06:16;;;;;;;125.32;42.22;;;26.60;84.00;;;;;;6176129;28;85424;-57
2022/08/23 10:09:17;;;;;;;111.50;30.70;;;26.70;83.80;;;;;;6192439;28;83328;-58
2022/08/23 10:12:17;;;;;;;83.95;29.73;;;26.70;82.30;;;;;;6192151;28;85776;-59
2022/08/23 10:15:18;;;;;;;92.07;29.45;;;26.70;83.70;;;;;;6191621;28;83390;-58
2022/08/23 10:18:18;;;;;;;82.07;25.83;;;26.70;83.50;;;;;;6172507;28;85694;-56
2022/08/23 10:21:20;;;;;;;61.70;23.75;;;26.70;83.50;;;;;;6169197;28;88694;-55
2022/08/23 10:24:21;;;;;;;44.65;20.90;;;26.70;83.20;;;;;;6162314;28;86081;-56
2022/08/23 10:30:42;;;;;;;35.55;14.85;;;26.70;81.80;;;;;;6182961;28;84276;-54
2022/08/23 10:33:43;;;;;;;36.58;15.95;;;26.60;79.20;;;;;;6181353;28;85625;-55
2022/08/23 10:36:43;;;;;;;34.45;15.05;;;26.50;81.20;;;;;;6184109;28;86183;-58
2022/08/23 10:39:44;;;;;;;25.27;12.68;;;26.70;81.10;;;;;;6191384;28;83714;-56
2022/08/23 10:42:45;;;;;;;22.38;13.05;;;26.60;79.60;;;;;;6175551;28;85376;-58
2022/08/23 10:45:46;;;;;;;20.30;11.32;;;26.60;78.50;;;;;;6188576;28;83133;-55
2022/08/23 10:49:02;;;;;;;23.20;10.85;;;26.70;77.50;;;;;;6171167;28;86111;-56
2022/08/23 10:52:04;;;;;;;20.83;10.07;;;26.60;77.30;;;;;;6179169;28;85293;-57
2022/08/23 10:55:16;;;;;;;18.45;10.77;;;26.70;76.80;;;;;;6165233;28;86488;-58
2022/08/23 10:58:17;;;;;;;17.88;10.95;;;26.60;76.70;;;;;;6171265;28;84058;-58
2022/08/23 11:01:18;;;;;;;19.05;9.93;;;26.60;76.40;;;;;;6193482;28;83247;-58
2022/08/23 11:04:19;;;;;;;22.63;10.23;;;26.60;76.60;;;;;;6177350;28;86232;-58
2022/08/23 11:07:33;;;;;;;16.73;11.18;;;26.70;77.30;;;;;;6194586;28;82938;-57
2022/08/23 11:10:38;;;;;;;18.37;9.20;;;26.70;76.60;;;;;;6166930;28;89702;-55
2022/08/23 11:13:39;;;;;;;15.75;10.40;;;26.70;76.50;;;;;;6178365;28;84906;-54
2022/08/23 11:16:41;;;;;;;16.45;10.20;;;26.70;76.20;;;;;;6187077;28;83174;-56
2022/08/23 11:19:42;;;;;;;15.00;8.70;;;26.70;75.60;;;;;;6175511;28;85215;-57
2022/08/23 11:22:43;;;;;;;15.05;9.05;;;26.70;75.80;;;;;;6175207;28;84175;-54
2022/08/23 11:25:44;;;;;;;15.95;8.85;;;26.70;75.80;;;;;;6179373;28;82795;-56
2022/08/23 11:28:45;;;;;;;10.18;7.70;;;26.70;75.20;;;;;;6180245;28;83628;-54
2022/08/23 11:31:48;;;;;;;15.25;9.45;;;26.70;75.30;;;;;;6173006;28;81650;-55
2022/08/23 11:34:50;;;;;;;15.63;9.15;;;26.70;75.90;;;;;;6176615;28;85824;-51
2022/08/23 11:37:52;;;;;;;12.63;9.15;;;26.70;75.80;;;;;;6165590;28;82592;-53
2022/08/23 11:40:54;;;;;;;13.93;8.32;;;26.70;75.10;;;;;;6179246;28;83155;-55
2022/08/23 11:43:58;;;;;;;12.37;8.20;;;26.70;75.70;;;;;;6169520;28;83652;-54
2022/08/23 11:46:59;;;;;;;14.63;9.20;;;26.70;75.90;;;;;;6177949;28;83595;-54
2022/08/23 11:50:02;;;;;;;16.20;10.43;;;26.70;75.70;;;;;;6178004;28;82680;-55
2022/08/23 11:53:02;;;;;;;14.45;9.38;;;26.60;75.60;;;;;;6198090;28;84472;-57
2022/08/23 11:56:03;;;;;;;18.30;10.68;;;26.60;77.00;;;;;;6194220;28;83170;-54
2022/08/23 11:59:04;;;;;;;18.52;9.95;;;26.60;76.20;;;;;;6196077;28;82950;-58
2022/08/23 12:02:04;;;;;;;15.10;10.00;;;26.60;75.90;;;;;;6201890;28;87264;-56
2022/08/23 12:05:07;;;;;;;27.98;10.75;;;26.60;76.00;;;;;;6196591;28;83288;-51
2022/08/23 12:08:08;;;;;;;18.63;11.40;;;26.70;76.20;;;;;;6198098;28;83119;-53
2022/08/23 12:11:08;;;;;;;13.52;9.52;;;26.60;76.20;;;;;;6190512;28;88229;-53
2022/08/23 12:14:09;;;;;;;16.33;9.70;;;26.60;75.70;;;;;;6198058;28;82155;-58
2022/08/23 12:17:09;;;;;;;21.45;11.15;;;26.60;75.50;;;;;;6190828;28;85590;-59
2022/08/23 12:20:10;;;;;;;24.65;9.75;;;26.60;75.00;;;;;;6191182;28;87264;-57
2022/08/23 12:23:11;;;;;;;17.85;10.35;;;26.40;74.40;;;;;;6193123;28;83000;-58
2022/08/23 12:26:12;;;;;;;17.30;9.60;;;26.40;74.10;;;;;;6192912;28;87205;-56
2022/08/23 12:29:12;;;;;;;13.00;9.80;;;26.40;75.40;;;;;;6193418;28;83450;-56
2022/08/23 12:32:13;;;;;;;15.27;9.80;;;26.40;75.10;;;;;;6195331;28;80866;-56
2022/08/23 12:35:13;;;;;;;13.10;9.15;;;26.40;74.90;;;;;;6194089;28;80212;-58
2022/08/23 12:38:14;;;;;;;15.13;9.63;;;26.50;75.60;;;;;;6193498;28;80435;-55
2022/08/23 12:41:14;;;;;;;16.77;8.02;;;26.50;75.20;;;;;;6197058;28;84909;-56
2022/08/23 12:44:15;;;;;;;13.32;9.48;;;26.50;74.90;;;;;;6192270;28;81109;-58
2022/08/23 12:47:15;;;;;;;11.20;8.27;;;26.60;75.00;;;;;;6192202;28;84124;-57
2022/08/23 12:50:16;;;;;;;14.60;8.23;;;26.70;74.90;;;;;;6193035;28;80559;-58
2022/08/23 12:53:16;;;;;;;11.55;8.48;;;26.80;75.60;;;;;;6195996;28;80633;-57
2022/08/23 12:56:17;;;;;;;13.48;8.35;;;26.80;76.50;;;;;;6195423;28;80395;-58
2022/08/23 12:59:17;;;;;;;13.90;8.82;;;26.90;76.40;;;;;;6193914;28;84684;-58
2022/08/23 13:02:18;;;;;;;12.82;8.65;;;26.90;75.80;;;;;;6198817;28;80616;-59
2022/08/23 13:05:20;;;;;;;12.88;8.18;;;26.90;75.00;;;;;;6168718;28;80566;-59
2022/08/23 13:08:21;;;;;;;12.45;8.20;;;27.00;74.90;;;;;;6193050;28;82707;-58
2022/08/23 13:11:21;;;;;;;14.35;8.98;;;27.10;74.80;;;;;;6192991;28;80706;-58
2022/08/23 13:14:22;;;;;;;14.90;9.30;;;27.10;74.30;;;;;;6187910;28;83444;-56
2022/08/23 13:17:22;;;;;;;12.45;7.90;;;27.10;74.20;;;;;;6187003;28;80287;-58
2022/08/23 13:20:23;;;;;;;13.23;8.23;;;27.10;73.90;;;;;;6189306;28;81523;-60
2022/08/23 13:23:23;;;;;;;17.75;8.63;;;27.10;73.80;;;;;;6193817;28;81417;-59
2022/08/23 13:26:24;;;;;;;12.50;7.65;;;27.10;73.80;;;;;;6196462;28;81094;-58
2022/08/23 13:29:25;;;;;;;9.65;7.50;;;27.10;74.10;;;;;;6189784;28;80580;-58
2022/08/23 13:32:25;;;;;;;13.77;8.07;;;27.10;74.00;;;;;;6190596;28;80843;-58
2022/08/23 13:35:26;;;;;;;16.75;8.60;;;27.10;73.60;;;;;;6186717;28;85648;-59
2022/08/23 13:38:26;;;;;;;10.48;7.93;;;27.10;73.40;;;;;;6191580;28;80848;-58
2022/08/23 13:41:27;;;;;;;15.27;9.30;;;27.20;72.90;;;;;;6171506;28;80538;-59
2022/08/23 13:44:30;;;;;;;18.30;8.75;;;27.20;72.80;;;;;;6187595;28;80927;-58
2022/08/23 13:47:30;;;;;;;14.02;7.53;;;27.20;72.80;;;;;;6187062;28;85493;-59
2022/08/23 13:50:31;;;;;;;9.55;7.07;;;27.20;72.80;;;;;;6193122;28;84049;-58
2022/08/23 13:53:31;;;;;;;13.40;7.72;;;27.20;72.80;;;;;;6198224;28;80482;-58
2022/08/23 13:56:32;;;;;;;15.90;8.75;;;27.20;72.50;;;;;;6189568;28;82582;-58
2022/08/23 13:59:33;;;;;;;14.38;8.95;;;27.20;72.60;;;;;;6193188;28;81370;-59
2022/08/23 14:02:33;;;;;;;14.82;8.57;;;27.30;72.80;;;;;;6191560;28;87259;-59
2022/08/23 14:05:34;;;;;;;10.98;7.90;;;27.30;72.60;;;;;;6195691;28;81368;-59
2022/08/23 14:08:34;;;;;;;14.55;8.68;;;27.30;72.50;;;;;;6196706;28;86203;-59
2022/08/23 14:11:35;;;;;;;12.27;7.82;;;27.30;72.80;;;;;;6185939;28;80869;-58
2022/08/23 14:14:35;;;;;;;11.32;7.70;;;27.20;72.60;;;;;;6199408;28;85069;-60
2022/08/23 14:17:36;;;;;;;10.73;7.40;;;27.30;72.60;;;;;;6195461;28;85176;-60
2022/08/23 14:20:36;;;;;;;8.90;7.00;;;27.20;72.50;;;;;;6200546;28;80751;-58
2022/08/23 14:23:37;;;;;;;9.18;6.97;;;27.20;72.60;;;;;;6197241;28;80559;-58
2022/08/23 14:26:37;;;;;;;14.18;8.32;;;27.30;73.00;;;;;;6197928;28;81201;-59
2022/08/23 14:29:38;;;;;;;13.48;8.43;;;27.20;72.80;;;;;;6196407;28;80589;-58
2022/08/23 14:32:39;;;;;;;12.48;7.38;;;27.20;72.70;;;;;;6200765;28;80283;-54
2022/08/23 14:35:40;;;;;;;9.48;6.72;;;27.20;72.30;;;;;;6182253;28;80757;-61
2022/08/23 14:38:40;;;;;;;11.48;6.80;;;27.10;72.10;;;;;;6169066;28;80685;-57
2022/08/23 14:41:41;;;;;;;10.93;6.68;;;27.10;71.60;;;;;;6176902;28;81528;-56
2022/08/23 14:44:42;;;;;;;10.10;7.05;;;27.10;71.50;;;;;;6175117;28;80863;-56
2022/08/23 14:47:42;;;;;;;15.50;7.22;;;27.00;71.90;;;;;;6188151;28;86823;-57
2022/08/23 14:50:42;;;;;;;12.27;6.68;;;27.00;72.20;;;;;;6176737;28;80827;-58
2022/08/23 14:53:43;;;;;;;9.70;6.63;;;27.00;72.00;;;;;;6181252;28;80699;-60
2022/08/23 14:56:43;;;;;;;8.07;6.40;;;27.00;71.80;;;;;;6170234;28;80505;-60
2022/08/23 14:59:44;;;;;;;10.98;6.75;;;27.00;71.50;;;;;;6176102;28;80450;-59
2022/08/23 15:02:44;;;;;;;10.05;6.63;;;27.00;70.80;;;;;;6203843;28;80313;-60
2022/08/23 15:05:45;;;;;;;8.77;6.97;;;27.00;71.00;;;;;;6179874;28;81541;-59
2022/08/23 15:08:45;;;;;;;7.60;6.18;;;27.00;71.30;;;;;;6139988;28;81195;-60
2022/08/23 15:11:46;;;;;;;8.68;5.85;;;27.00;70.70;;;;;;6176150;28;80906;-59
2022/08/23 15:14:47;;;;;;;11.48;6.40;;;27.00;70.50;;;;;;6176779;28;80332;-60
2022/08/23 15:17:47;;;;;;;9.27;6.32;;;27.00;70.60;;;;;;6175608;28;83991;-60
2022/08/23 15:20:48;;;;;;;7.60;5.90;;;27.00;71.10;;;;;;6176121;28;80691;-60
2022/08/23 15:23:48;;;;;;;9.95;5.68;;;27.00;70.80;;;;;;6176280;28;83287;-60
2022/08/23 15:26:49;;;;;;;8.02;6.15;;;27.00;70.90;;;;;;6178771;28;81175;-58
2022/08/23 15:29:49;;;;;;;11.52;7.53;;;27.00;70.30;;;;;;6175504;28;85147;-59
2022/08/23 15:32:50;;;;;;;15.98;7.57;;;26.90;71.00;;;;;;6180987;28;80795;-59
2022/08/23 15:35:50;;;;;;;14.02;7.82;;;26.90;71.30;;;;;;6198254;28;80778;-56
2022/08/23 15:38:51;;;;;;;12.23;7.10;;;26.90;71.10;;;;;;6198201;28;80727;-58
2022/08/23 15:41:51;;;;;;;12.68;7.68;;;26.90;70.20;;;;;;6196049;28;80116;-57
2022/08/23 15:44:52;;;;;;;10.45;6.63;;;26.90;70.40;;;;;;6196662;28;81120;-60
2022/08/23 15:47:52;;;;;;;12.38;7.25;;;26.80;70.50;;;;;;6200307;28;81227;-56
2022/08/23 15:50:53;;;;;;;11.02;6.50;;;26.80;70.70;;;;;;6200856;28;80901;-60